NOAA/GLERL Met Station at Michigan City, IN

Previous 5 days (top of hour only)
See slso Previous 3 Hours (2 minute increments)
Jump down to Data
Switch to [English][Metric]
Zoom: Click and drag, Pan: shift-click and drag, Unzoom: double-click, Unzoom All





Zoom: Click and drag, Pan: shift-click and drag, Unzoom: double-click, Unzoom All

Note: Speed = mean wind during 5-minute period at top of hour,
Gust = max wind during 5-minute period at top of hour,
Peak = max wind during entire hour.
• See also 5-day windrose plot
Jump up to Graphs
Previous 5 days (top of hour only)
See slso Previous 3 Hours (2 minute increments)
                  Wind  Wind  Wind   Air   Dew   Rel     Sta   PAR
                   Spd   Gst   Dir  Temp    Pt   Hum    Pres uE/m2/
YYYY-MM-DD   CDT   kts   kts   deg     F     F     %   in Hg   sec
2015-08-30 23:00   2.3   2.9    59  66.4  64.4  93.4   29.44     0
2015-08-30 22:00   3.1   3.5    96  67.3  65.3  93.4   29.44     0
2015-08-30 21:00   5.8   6.2    34  69.1  65.6  88.4   29.45     0
2015-08-30 20:00   7.4   7.6    27  68.7  65.8  90.3   29.44     0
2015-08-30 19:00   6.8   7.2    21  68.7  65.7  89.9   29.42    59
2015-08-30 18:00   6.6   7.0    37  68.9  65.6  89.1   29.43   406
2015-08-30 17:00   7.2   7.8    10  68.7  65.8  90.4   29.44   837
2015-08-30 16:00   4.5   5.1   356  71.6  64.6  78.3   29.45  1218
2015-08-30 15:00   5.1   5.8   331  71.2  64.8  79.8   29.45     0
2015-08-30 14:00   6.6   7.2   288  70.3  64.0  80.1   29.47     0
2015-08-30 13:00   6.0   6.4   255  69.6  64.2  82.7   29.47  1053
2015-08-30 12:00   5.2   6.4   282  70.3  63.5  78.6   29.49  1071
2015-08-30 11:00   4.5   5.1   248  69.3  64.5  84.7   29.49  1187
2015-08-30 10:00   4.5   5.1   273  71.1  64.4  79.3   29.48  1364
2015-08-30 09:00   1.7   2.5   283  70.7  64.3  79.8   29.47   941
2015-08-30 08:00   5.2   6.2   308  67.8  65.5  92.0   29.47   249
2015-08-30 07:00   8.7   9.3   316  67.6  65.6  93.2   29.45   117
2015-08-30 06:00   5.8   6.4   331  67.6  65.5  92.9   29.44     0
2015-08-30 05:00   7.0   7.8   302  67.5  65.7  93.9   29.42     0
2015-08-30 04:00   5.8   6.4   284  67.5  66.2  95.8   29.41     0
2015-08-30 03:00   3.3   3.7   309  67.5  66.2  95.5   29.41     0
2015-08-30 02:00   8.9   9.5   295  67.3  66.4  96.9   29.41     0
2015-08-30 01:00   7.0   7.6   292  68.2  67.1  96.3   29.42     0
2015-08-30 00:00   4.7   5.1   314  68.9  68.3  97.8   29.42     0
2015-08-29 23:00   4.1   4.5   201  69.4  68.7  97.5   29.42     0
2015-08-29 22:00   5.6   6.4   146  70.9  68.1  90.9   29.42     0
2015-08-29 21:00   6.8   7.8   136  70.5  68.3  92.7   29.42     0
2015-08-29 20:00   1.9   2.9    65  70.3  68.3  93.2   29.41     0
2015-08-29 19:00   3.1   4.5   125  70.5  67.5  90.1   29.41    19
2015-08-29 18:00   3.5   4.9    96  70.9  66.9  87.1   29.40    85
2015-08-29 17:00   4.5   6.2   112  71.2  66.7  85.4   29.40   131
2015-08-29 16:00   5.2   7.2   117  71.2  65.5  81.7   29.41   207
2015-08-29 15:00   7.4   8.9   150  72.3  63.0  72.0   29.42   140
2015-08-29 14:00  10.7  12.6   157  71.2  64.3  78.5   29.42     0
2015-08-29 13:00   9.7  11.1   132  68.9  65.0  87.2   29.44   474
2015-08-29 12:00   7.8  10.1    99  67.5  64.0  88.6   29.46   422
2015-08-29 11:00   7.4   8.9   104  65.1  63.3  93.7   29.45   281
2015-08-29 10:00   7.6   9.1    60  64.4  62.4  93.0   29.47   324
2015-08-29 09:00   6.8   8.2    99  63.7  60.7  89.9   29.48   258
2015-08-29 08:00   7.8   9.1   115  64.8  59.2  81.8   29.47    74
2015-08-29 07:00   9.7  11.9   125  66.0  57.8  74.4   29.46    35
2015-08-29 06:00  10.3  11.9   129  66.4  57.6  73.0   29.46     0
2015-08-29 05:00   9.7  11.5   133  67.1  57.2  70.1   29.45     0
2015-08-29 04:00   8.4  11.1   128  67.3  57.1  69.5   29.46     0
2015-08-29 03:00   7.4   8.9   119  66.4  57.9  73.7   29.47     0
2015-08-29 02:00   5.4   5.8   118  67.3  58.3  72.5   29.48     0
2015-08-29 01:00   5.1   6.2   115  68.9  58.5  69.0   29.49     0
2015-08-29 00:00   5.8   8.0   101  69.1  60.0  72.5   29.49     0
2015-08-28 23:00   4.1   5.6    98  69.8  60.8  72.6   29.49     0
2015-08-28 22:00   5.1   6.2    94  70.5  61.4  72.4   29.49     0
2015-08-28 21:00   2.7   3.1   107  70.3  63.2  77.7   29.50     0
2015-08-28 20:00   4.7   5.8    80  71.1  63.2  75.8   29.48     0
2015-08-28 19:00   4.3   4.9    71  72.1  63.0  72.5   29.47    17
2015-08-28 18:00   7.0   7.2    39  70.3  66.0  85.9   29.48    77
2015-08-28 17:00   3.3   3.7    18  70.3  65.5  84.5   29.49   178
2015-08-28 16:00   3.5   3.9    31  70.9  63.7  77.7   29.50   380
2015-08-28 15:00   3.9   3.9   258  73.4  62.7  68.7   29.52   490
2015-08-28 14:00   5.2   5.6   226  72.7  60.5  65.1   29.54   885
2015-08-28 13:00   8.0   8.7   208  73.0  60.6  64.5   29.54  1101
2015-08-28 12:00   8.2  10.5   186  72.1  59.6  64.3   29.55  1273
2015-08-28 11:00   5.4   7.0   167  70.3  59.6  68.3   29.56  1186
2015-08-28 10:00   6.0   7.4   174  68.2  58.6  71.0   29.57  1092
2015-08-28 09:00   8.6   9.7   138  65.5  57.3  74.5   29.55   906
2015-08-28 08:00  11.3  12.4   131  62.1  56.0  80.2   29.55   520
2015-08-28 07:00  10.9  12.6   125  60.3  55.3  83.5   29.54   178
2015-08-28 06:00   9.5  11.7   120  59.9  54.9  83.4   29.52     2
2015-08-28 05:00   8.2   9.9   124  59.9  55.1  83.8   29.52     0
2015-08-28 04:00   8.9  10.1   121  60.1  54.8  82.4   29.53     0
2015-08-28 03:00   8.6  10.7   121  59.9  54.5  82.0   29.54     0
2015-08-28 02:00   7.6   8.6   119  59.5  53.9  81.3   29.53     0
2015-08-28 01:00   5.8   6.8    98  61.7  54.3  76.3   29.54     0
2015-08-28 00:00   3.5   4.5    80  60.1  55.9  86.0   29.55     0
2015-08-27 23:00   6.6   7.2    41  61.9  56.7  82.8   29.55     0
2015-08-27 22:00   7.8   8.7    63  62.2  55.5  78.3   29.54     0
2015-08-27 21:00   6.0   6.8    65  63.7  55.9  75.5   29.55     0
2015-08-27 20:00   6.2   7.0    62  64.6  55.4  71.7   29.53     0
2015-08-27 19:00   5.6   6.2    46  66.4  55.2  66.8   29.53    43
2015-08-27 18:00   3.1   3.5   349  68.9  55.1  61.0   29.55   386
2015-08-27 17:00   4.5   5.2   316  68.5  54.2  59.7   29.55   757
2015-08-27 16:00   5.4   6.8   314  68.0  53.4  59.0   29.56  1149
2015-08-27 15:00   2.7   3.7   345  67.3  54.2  62.4   29.57  1324
2015-08-27 14:00   5.1   5.8   334  67.6  54.1  61.4   29.58   805
2015-08-27 13:00   4.9   6.4   322  66.9  53.1  60.6   29.59   809
2015-08-27 12:00   7.2   9.3    56  64.8  52.1  63.2   29.58   959
2015-08-27 11:00   7.4   9.7    66  64.2  53.7  68.2   29.59  1418
2015-08-27 10:00   7.4   8.6   110  62.4  54.1  73.8   29.61  1334
2015-08-27 09:00   5.4   6.4   143  61.7  54.3  76.5   29.62   353
2015-08-27 08:00   5.8   6.6   196  60.6  55.2  82.0   29.62   113
2015-08-27 07:00   6.2   8.2   173  60.3  53.9  79.3   29.61    39
2015-08-27 06:00   5.6   6.0   128  60.8  54.0  78.0   29.58     0
2015-08-27 05:00   4.3   5.1   114  61.9  53.5  73.6   29.57     0
2015-08-27 04:00   3.1   4.1   146  62.2  54.0  74.1   29.56     0
2015-08-27 03:00   2.3   2.9   148  62.2  54.7  76.1   29.55     0
2015-08-27 02:00   3.3   3.7   130  62.1  54.1  74.8   29.55     0
2015-08-27 01:00   2.5   3.1   149  62.4  54.8  75.7   29.56     0
2015-08-27 00:00   1.7   3.3   226  62.8  54.2  73.3   29.56     0
2015-08-26 23:00   3.1   4.3   360  64.0  51.9  64.3   29.57     0
2015-08-26 22:00   6.6   9.1   347  64.0  51.8  64.1   29.57     0
2015-08-26 21:00   7.2   8.6   341  63.7  52.0  65.3   29.57     0
2015-08-26 20:00   6.0   8.0   339  63.7  52.5  66.6   29.55     0
2015-08-26 19:00   4.5   6.2   335  63.7  52.8  67.4   29.55    49